This is the latest recevied weather packets stored in our database for station/object CR7BYS. If no packets are shown the sender has not sent any weather packets the latest 1 day(s).
| Time | Temp. | Humidity | Pressure | Rain* | Wind** | Luminosity | Snow |
|---|---|---|---|---|---|---|---|
| 1778231901 | -17.78° C | 100% | 0 hPa | 0 mm | - | - | - |
| 1778231001 | -17.78° C | 100% | 0 hPa | 0 mm | - | - | - |
| 1778230101 | -17.78° C | 100% | 0 hPa | 0 mm | - | - | - |
| 1778229201 | -17.78° C | 100% | 0 hPa | 0 mm | - | - | - |
| 1778228301 | -17.78° C | 100% | 0 hPa | 0 mm | - | - | - |
| 1778227401 | -17.78° C | 100% | 0 hPa | 0 mm | - | - | - |
| 1778226501 | -17.78° C | 100% | 0 hPa | 0 mm | - | - | - |
| 1778225601 | -17.78° C | 100% | 0 hPa | 0 mm | - | - | - |
| 1778224701 | 21.11° C | 49% | 1002.6 hPa | 0 mm | - | - | - |
| 1778223801 | 20.56° C | 50% | 1002.5 hPa | 0 mm | - | - | - |
| 1778223241 | 20.56° C | 49% | 1002.4 hPa | 0 mm | - | - | - |
| 1778222901 | 20.56° C | 50% | 1002.3 hPa | 0 mm | - | - | - |
| 1778222001 | 20.56° C | 49% | 1002.3 hPa | 0 mm | - | - | - |
| 1778221287 | 20.56° C | 50% | 1002.3 hPa | 0 mm | - | - | - |
| 1778220201 | 20.56° C | 51% | 1002.3 hPa | 0 mm | - | - | - |
| 1778218587 | 20° C | 54% | 1002 hPa | 0 mm | - | - | - |
| 1778215036 | 20.56° C | 44% | 994 hPa | 0 mm | - | - | - |
| 1778215028 | 20.56° C | 44% | 993.9 hPa | 0 mm | - | - | - |
| 1778214136 | 23.33° C | 39% | 993.6 hPa | 0 mm | - | - | - |
| 1778214128 | 23.33° C | 39% | 993.7 hPa | 0 mm | - | - | - |
| 1778213177 | 20.56° C | 46% | 993.6 hPa | 0 mm | - | - | - |
| 1778212252 | 20.56° C | 44% | 993.8 hPa | 0 mm | - | - | - |
| 1778212155 | 20.56° C | 44% | 993.8 hPa | 0 mm | - | - | - |
| 1778211255 | 20.56° C | 43% | 993.8 hPa | 0 mm | - | - | - |
| 1778211174 | 21.11° C | 42% | 993.8 hPa | 0 mm | - | - | - |
* Rain latest hour (hover to see other rain measurements)
** Current wind speed in m/s (hover to see current wind gust speed)